Time;durP1;ratioP1;P1;durP2;ratioP2;P2;SDS_P1;SDS_P2;PMS_P1;PMS_P2;Temp;Humidity;BMP_temperature;BMP_pressure;BME280_temperature;BME280_humidity;BME280_pressure;Samples;Min_cycle;Max_cycle;Signal;HPM_P1;HPM_P2
2021/07/02 00:01:34;;;;;;;2.42;1.98;;;;;;;12.56;81.22;96637.97;5131330;27;20174;-75
2021/07/02 00:04:13;;;;;;;3.03;2.78;;;;;;;12.56;81.53;96641.38;5090597;28;20126;-75
2021/07/02 00:06:51;;;;;;;2.30;2.10;;;;;;;12.55;81.65;96633.72;5129651;27;20186;-75
2021/07/02 00:09:29;;;;;;;1.92;1.83;;;;;;;12.54;81.68;96635.53;5131365;27;20190;-75
2021/07/02 00:12:07;;;;;;;2.15;2.05;;;;;;;12.54;81.96;96630.28;5152389;27;20119;-75
2021/07/02 00:14:45;;;;;;;2.25;2.15;;;;;;;12.55;82.20;96636.34;5111616;27;20121;-75
2021/07/02 00:17:24;;;;;;;2.30;2.20;;;;;;;12.55;82.17;96631.06;5111172;27;20120;-74
2021/07/02 00:20:03;;;;;;;2.90;2.40;;;;;;;12.55;82.41;96633.72;5126351;27;20176;-74
2021/07/02 00:22:40;;;;;;;2.50;2.40;;;;;;;12.56;82.66;96632.69;5091151;28;20126;-76
2021/07/02 00:25:18;;;;;;;2.47;2.28;;;;;;;12.56;82.73;96628.22;5111761;27;20117;-74
2021/07/02 00:27:57;;;;;;;2.58;2.30;;;;;;;12.57;82.90;96634.28;5111312;27;20124;-73
2021/07/02 00:30:35;;;;;;;2.55;2.45;;;;;;;12.56;82.92;96622.97;5131556;27;20553;-74
2021/07/02 00:33:13;;;;;;;3.03;2.25;;;;;;;12.55;82.94;96626.63;5131787;27;20621;-74
2021/07/02 00:35:51;;;;;;;3.05;2.72;;;;;;;12.53;83.27;96623.41;5131700;27;20616;-74
2021/07/02 00:38:30;;;;;;;2.45;2.25;;;;;;;12.53;83.36;96612.88;5070749;28;20735;-75
2021/07/02 00:41:08;;;;;;;2.22;2.13;;;;;;;12.53;83.38;96609.47;5111311;27;20335;-75
2021/07/02 00:43:54;;;;;;;2.33;2.22;;;;;;;12.52;83.85;96613.94;5111495;27;20573;-74
2021/07/02 00:46:31;;;;;;;2.30;2.20;;;;;;;12.50;83.44;96617.81;5070731;28;20378;-74
2021/07/02 00:49:09;;;;;;;2.35;2.25;;;;;;;12.49;83.64;96609.09;5070695;28;20378;-74
2021/07/02 00:51:46;;;;;;;2.20;2.10;;;;;;;12.49;83.94;96605.66;5091316;27;20378;-74
2021/07/02 00:54:21;;;;;;;2.50;2.40;;;;;;;12.47;83.85;96605.09;5086273;27;1282375;-75
2021/07/02 00:57:01;;;;;;;2.55;2.35;;;;;;;12.45;83.92;96604.53;5111369;27;20339;-74
2021/07/02 00:59:41;;;;;;;2.17;2.08;;;;;;;12.42;84.10;96602.34;5070847;28;20386;-74
2021/07/02 01:02:18;;;;;;;2.67;2.47;;;;;;;12.37;84.06;96608.28;5070549;28;20895;-75
2021/07/02 01:04:56;;;;;;;2.40;2.20;;;;;;;12.34;84.27;96606.91;5111213;27;20128;-74
2021/07/02 01:07:33;;;;;;;2.60;2.40;;;;;;;12.34;84.35;96606.91;5070918;28;20375;-74
2021/07/02 01:10:11;;;;;;;2.17;2.08;;;;;;;12.32;84.36;96611.56;5070605;28;20379;-75
2021/07/02 01:12:49;;;;;;;3.40;2.35;;;;;;;12.32;84.30;96616.84;5090815;27;20384;-74
2021/07/02 01:15:27;;;;;;;2.45;2.25;;;;;;;12.31;84.39;96607.34;5070600;28;20386;-73
2021/07/02 01:18:06;;;;;;;2.17;2.08;;;;;;;12.27;84.41;96608.03;5109497;27;20429;-75
2021/07/02 01:20:47;;;;;;;2.58;2.38;;;;;;;12.25;84.46;96617.97;5070560;28;20401;-75
2021/07/02 01:23:26;;;;;;;2.63;2.50;;;;;;;12.23;84.43;96618.19;5071010;28;20385;-74
2021/07/02 01:26:05;;;;;;;2.25;2.15;;;;;;;12.18;84.43;96616.22;5070590;28;20378;-74
2021/07/02 01:28:43;;;;;;;2.17;2.08;;;;;;;12.16;84.40;96612.22;5108677;27;20811;-75
2021/07/02 01:31:21;;;;;;;2.35;2.15;;;;;;;12.13;84.52;96623.97;5111596;27;20120;-75
2021/07/02 01:34:00;;;;;;;2.85;2.17;;;;;;;12.10;84.39;96615.75;5129368;27;20593;-75
2021/07/02 01:36:38;;;;;;;2.20;2.05;;;;;;;12.08;84.32;96613.34;5111546;27;20117;-75
2021/07/02 01:39:16;;;;;;;2.30;2.20;;;;;;;12.08;84.38;96618.59;5090812;28;20582;-74
2021/07/02 01:41:54;;;;;;;2.10;2.00;;;;;;;12.06;84.35;96619.84;5131839;27;20120;-74
2021/07/02 01:44:34;;;;;;;2.10;2.00;;;;;;;12.05;84.25;96616.41;5111238;27;20398;-75
2021/07/02 01:47:10;;;;;;;2.55;2.20;;;;;;;12.02;84.29;96624.75;5091080;28;20393;-75
2021/07/02 01:49:48;;;;;;;2.22;2.13;;;;;;;11.99;84.17;96622.56;5131861;27;20371;-75
2021/07/02 01:52:24;;;;;;;2.42;2.33;;;;;;;11.96;84.18;96617.75;5088423;27;1263194;-75
2021/07/02 01:55:04;;;;;;;2.15;2.05;;;;;;;11.93;84.16;96618.19;5129816;27;20183;-74
2021/07/02 01:57:42;;;;;;;2.15;2.05;;;;;;;11.91;84.15;96617.63;5091008;28;20384;-74
2021/07/02 02:00:20;;;;;;;1.95;1.85;;;;;;;11.88;84.06;96613.59;5111932;27;20177;-75
2021/07/02 02:02:58;;;;;;;2.33;2.20;;;;;;;11.87;84.15;96611.16;5090780;28;20562;-74
2021/07/02 02:05:36;;;;;;;2.05;1.95;;;;;;;11.85;84.00;96618.47;5111174;27;20557;-75
2021/07/02 02:08:16;;;;;;;2.30;2.20;;;;;;;11.83;84.02;96616.06;5111221;27;20129;-75
2021/07/02 02:10:53;;;;;;;2.50;2.25;;;;;;;11.81;84.08;96619.94;5152356;27;20478;-75
2021/07/02 02:13:31;;;;;;;2.20;2.00;;;;;;;11.78;83.79;96613.31;5111230;27;20129;-75
2021/07/02 02:16:10;;;;;;;2.00;1.90;;;;;;;11.76;83.91;96615.34;5070772;28;20375;-75
2021/07/02 02:18:48;;;;;;;1.65;1.63;;;;;;;11.73;84.14;96608.69;5070672;28;20920;-75
2021/07/02 02:21:26;;;;;;;2.13;2.00;;;;;;;11.74;83.92;96612.94;5111144;27;20346;-75
2021/07/02 02:24:04;;;;;;;2.60;2.40;;;;;;;11.71;83.91;96602.84;5111363;27;20132;-75
2021/07/02 02:26:42;;;;;;;2.35;2.25;;;;;;;11.70;83.84;96610.97;5131670;27;20201;-74
2021/07/02 02:29:22;;;;;;;2.28;2.17;;;;;;;11.66;83.75;96607.19;5131817;27;20567;-75
2021/07/02 02:31:59;;;;;;;2.25;2.13;;;;;;;11.63;83.65;96610.22;5111042;27;20132;-75
2021/07/02 02:34:37;;;;;;;2.17;1.98;;;;;;;11.61;83.68;96601.78;5111360;27;20121;-75
2021/07/02 02:37:15;;;;;;;2.15;2.00;;;;;;;11.56;83.54;96602.44;5111471;27;20121;-75
2021/07/02 02:39:53;;;;;;;2.38;2.17;;;;;;;11.55;83.38;96595.59;5131530;27;20120;-75
2021/07/02 02:42:32;;;;;;;2.17;2.05;;;;;;;11.53;83.68;96614.19;5129881;27;20193;-75
2021/07/02 02:45:10;;;;;;;2.33;2.13;;;;;;;11.50;83.55;96609.34;5091303;28;20121;-75
2021/07/02 02:47:49;;;;;;;2.50;2.30;;;;;;;11.50;83.51;96609.34;5101176;27;20454;-75
2021/07/02 02:50:27;;;;;;;2.38;2.22;;;;;;;11.48;83.44;96614.03;5111553;27;20121;-75
2021/07/02 02:53:04;;;;;;;2.10;2.00;;;;;;;11.44;83.33;96614.69;5131687;27;20379;-75
2021/07/02 02:55:41;;;;;;;1.90;1.80;;;;;;;11.42;83.24;96611.47;5107899;27;20473;-75
2021/07/02 02:58:19;;;;;;;1.92;1.83;;;;;;;11.40;83.39;96616.16;5125742;27;20670;-74
2021/07/02 03:00:57;;;;;;;2.05;1.95;;;;;;;11.38;83.00;96616.34;5111554;27;20128;-74
2021/07/02 03:03:36;;;;;;;1.90;1.80;;;;;;;11.36;83.17;96618.44;5111718;27;20117;-74
2021/07/02 03:06:14;;;;;;;1.95;1.85;;;;;;;11.35;83.30;96616.81;5111263;27;20117;-75
2021/07/02 03:08:52;;;;;;;2.55;2.38;;;;;;;11.32;83.28;96604.91;5129891;27;20172;-75
2021/07/02 03:11:30;;;;;;;4.15;2.00;;;;;;;11.29;83.28;96613.22;5131689;27;20252;-74
2021/07/02 03:14:08;;;;;;;2.03;1.92;;;;;;;11.28;83.15;96616.88;5090977;28;20113;-74
2021/07/02 03:16:48;;;;;;;2.08;1.98;;;;;;;11.27;83.23;96624.97;5111321;27;20125;-75
2021/07/02 03:19:25;;;;;;;2.17;2.08;;;;;;;11.24;83.36;96625.41;5131844;27;20484;-74
2021/07/02 03:22:03;;;;;;;2.15;2.05;;;;;;;11.23;83.21;96626.41;5090757;28;20466;-75
2021/07/02 03:24:41;;;;;;;2.22;2.13;;;;;;;11.21;83.37;96618.75;5131000;27;20193;-75
2021/07/02 03:27:19;;;;;;;2.22;2.00;;;;;;;11.18;83.27;96621.81;5131958;27;20571;-74
2021/07/02 03:29:58;;;;;;;2.40;2.00;;;;;;;11.17;83.16;96623.66;5110983;27;20128;-75
2021/07/02 03:32:36;;;;;;;2.00;1.90;;;;;;;11.15;82.99;96627.53;5132160;27;20587;-75
2021/07/02 03:35:14;;;;;;;2.25;2.13;;;;;;;11.14;83.25;96620.66;5111375;27;20121;-75
2021/07/02 03:37:52;;;;;;;2.22;2.03;;;;;;;11.14;82.92;96618.03;5070588;28;20379;-75
2021/07/02 03:40:30;;;;;;;2.05;1.95;;;;;;;11.15;83.00;96630.94;5111682;27;20352;-75
2021/07/02 03:43:08;;;;;;;2.17;2.08;;;;;;;11.14;82.94;96631.94;5090871;28;20125;-75
2021/07/02 03:45:47;;;;;;;1.85;1.75;;;;;;;11.15;82.92;96638.03;5111572;27;20117;-75
2021/07/02 03:48:25;;;;;;;3.25;2.20;;;;;;;11.13;83.05;96640.84;5131815;27;20604;-75
2021/07/02 03:51:03;;;;;;;2.20;2.10;;;;;;;11.13;83.06;96632.97;5090847;28;20382;-75
2021/07/02 03:53:41;;;;;;;2.20;2.10;;;;;;;11.12;82.83;96638.44;5131491;27;20608;-75
2021/07/02 03:56:20;;;;;;;1.98;1.80;;;;;;;11.10;83.02;96638.66;5111441;27;20117;-75
2021/07/02 03:58:58;;;;;;;2.33;2.13;;;;;;;11.09;83.14;96634.44;5090725;28;20482;-75
2021/07/02 04:01:36;;;;;;;1.98;1.88;;;;;;;11.10;83.03;96641.28;5111636;27;20113;-75
2021/07/02 04:04:14;;;;;;;2.40;2.20;;;;;;;11.09;83.07;96634.44;5111114;27;20500;-75
2021/07/02 04:06:53;;;;;;;2.13;2.03;;;;;;;11.09;82.93;96637.06;5130745;27;20176;-75
2021/07/02 04:09:34;;;;;;;2.65;1.98;;;;;;;11.10;83.07;96636.03;5070775;28;20385;-75
2021/07/02 04:12:13;;;;;;;2.05;1.95;;;;;;;11.09;82.76;96634.44;5110528;27;20429;-75
2021/07/02 04:14:50;;;;;;;2.15;2.05;;;;;;;11.10;83.02;96638.66;5131808;27;20179;-75
2021/07/02 04:17:29;;;;;;;2.53;2.10;;;;;;;11.11;83.09;96636.84;5106023;27;20465;-75
2021/07/02 04:20:10;;;;;;;2.20;2.10;;;;;;;11.12;83.24;96639.22;5111327;27;20117;-75
2021/07/02 04:22:47;;;;;;;2.08;1.98;;;;;;;11.13;83.09;96640.84;5131789;27;20379;-74
2021/07/02 04:25:26;;;;;;;2.50;2.30;;;;;;;11.14;83.23;96641.66;5111604;27;20127;-74
2021/07/02 04:28:03;;;;;;;2.47;2.28;;;;;;;11.15;83.18;96644.06;5104815;27;20423;-75
2021/07/02 04:30:41;;;;;;;2.42;2.22;;;;;;;11.17;83.18;96643.81;5130762;27;20197;-75
2021/07/02 04:33:19;;;;;;;2.40;2.20;;;;;;;11.20;83.23;96650.50;5111346;27;20128;-75
2021/07/02 04:35:58;;;;;;;2.00;1.90;;;;;;;11.21;83.27;96655.50;5111342;27;20117;-75
2021/07/02 04:38:36;;;;;;;2.60;2.28;;;;;;;11.33;83.34;96658.22;5111139;27;20125;-76
2021/07/02 04:41:14;;;;;;;2.65;2.50;;;;;;;11.55;83.62;96663.88;5111812;27;20120;-74
2021/07/02 04:43:52;;;;;;;2.80;2.60;;;;;;;11.82;83.54;96660.94;5111362;27;20117;-75
2021/07/02 04:46:30;;;;;;;2.88;2.67;;;;;;;12.09;83.17;96658.81;5131616;27;20176;-74
2021/07/02 04:49:10;;;;;;;2.77;2.40;;;;;;;12.34;83.13;96654.22;5063006;27;1957877;-75
2021/07/02 04:51:47;;;;;;;2.58;2.42;;;;;;;12.57;82.64;96653.50;5070994;28;20904;-74
2021/07/02 04:54:26;;;;;;;2.97;2.78;;;;;;;12.79;82.19;96658.25;5128981;27;20126;-74
2021/07/02 04:57:03;;;;;;;2.83;2.63;;;;;;;13.03;82.02;96655.66;5111047;27;20417;-74
2021/07/02 04:59:43;;;;;;;2.50;2.40;;;;;;;13.25;81.63;96654.06;5090734;28;20122;-74
2021/07/02 05:02:20;;;;;;;2.70;2.50;;;;;;;13.48;81.26;96652.44;5132328;27;20480;-74
2021/07/02 05:04:58;;;;;;;2.80;2.63;;;;;;;13.50;80.19;96656.47;5131629;27;20591;-75
2021/07/02 05:07:36;;;;;;;2.55;2.42;;;;;;;13.59;80.21;96662.97;5131782;27;20143;-74
2021/07/02 05:10:14;;;;;;;2.55;2.35;;;;;;;13.78;80.09;96652.31;5132194;27;20131;-74
2021/07/02 05:12:52;;;;;;;2.33;2.22;;;;;;;13.95;79.64;96655.81;5111173;27;20128;-75
2021/07/02 05:15:31;;;;;;;2.78;2.50;;;;;;;14.18;79.36;96657.56;5111502;27;20125;-74
2021/07/02 05:18:09;;;;;;;2.85;2.20;;;;;;;14.46;79.14;96665.69;5090691;27;20757;-74
2021/07/02 05:20:48;;;;;;;2.55;2.35;;;;;;;14.73;78.78;96661.44;5070506;28;20393;-74
2021/07/02 05:23:37;;;;;;;2.30;2.20;;;;;;;14.99;77.85;96662.69;5090662;27;20369;-74
2021/07/02 05:26:15;;;;;;;2.20;2.10;;;;;;;15.21;77.18;96659.28;5070804;28;20329;-74
2021/07/02 05:28:53;;;;;;;2.42;2.22;;;;;;;15.41;76.64;96664.06;5125542;27;20230;-74
2021/07/02 05:31:32;;;;;;;2.25;2.05;;;;;;;15.64;76.06;96668.34;5111476;27;20131;-74
2021/07/02 05:34:11;;;;;;;2.55;2.15;;;;;;;15.85;75.26;96663.34;5120443;27;20139;-74
2021/07/02 05:36:48;;;;;;;2.22;2.10;;;;;;;15.96;74.42;96662.44;5128029;27;20593;-74
2021/07/02 05:39:27;;;;;;;2.80;2.08;;;;;;;16.02;73.54;96670.19;5070942;28;20386;-74
2021/07/02 05:42:05;;;;;;;2.63;2.42;;;;;;;16.00;72.95;96674.09;5111347;27;20331;-74
2021/07/02 05:44:43;;;;;;;2.72;2.40;;;;;;;16.08;72.82;96672.88;5128168;27;20667;-74
2021/07/02 05:47:23;;;;;;;2.25;2.15;;;;;;;16.24;72.62;96677.28;5111213;27;20136;-74
2021/07/02 05:50:00;;;;;;;2.22;2.03;;;;;;;16.46;72.16;96666.66;5070867;28;20397;-74
2021/07/02 05:52:37;;;;;;;2.30;2.10;;;;;;;16.69;71.64;96670.06;5109821;27;20867;-74
2021/07/02 05:55:15;;;;;;;2.03;1.92;;;;;;;16.79;70.72;96668.28;5131685;27;20205;-74
2021/07/02 05:57:54;;;;;;;2.15;2.05;;;;;;;16.80;69.79;96669.13;5110958;27;20120;-73
2021/07/02 06:00:32;;;;;;;3.15;2.13;;;;;;;16.80;69.61;96672.59;5131938;27;20595;-74
2021/07/02 06:03:10;;;;;;;2.28;2.00;;;;;;;16.87;69.06;96667.06;5111588;27;20120;-74
2021/07/02 06:05:48;;;;;;;2.60;2.40;;;;;;;16.85;68.89;96669.19;5111298;27;20121;-74
2021/07/02 06:08:26;;;;;;;2.30;2.10;;;;;;;17.03;68.61;96668.81;5111576;27;20450;-74
2021/07/02 06:11:06;;;;;;;1.77;1.67;;;;;;;16.95;68.04;96673.78;5095116;28;20421;-74
2021/07/02 06:13:44;;;;;;;2.08;1.98;;;;;;;16.99;67.61;96682.81;5111004;27;20128;-74
2021/07/02 06:16:23;;;;;;;2.30;2.20;;;;;;;17.12;67.58;96679.72;5111031;27;20476;-73
2021/07/02 06:19:01;;;;;;;2.00;1.90;;;;;;;17.32;67.19;96681.72;5125471;27;20602;-74
2021/07/02 06:21:39;;;;;;;2.15;2.05;;;;;;;17.52;66.92;96673.09;5111369;27;20121;-74
2021/07/02 06:24:17;;;;;;;2.53;2.22;;;;;;;17.61;66.58;96679.50;5132062;27;20123;-74
2021/07/02 06:26:56;;;;;;;2.22;2.13;;;;;;;17.54;65.96;96673.63;5131607;27;20127;-74
2021/07/02 06:29:34;;;;;;;2.50;2.40;;;;;;;17.60;65.84;96669.97;5132079;27;20378;-74
2021/07/02 06:32:12;;;;;;;2.47;2.28;;;;;;;17.80;65.83;96676.41;5070841;28;20381;-74
2021/07/02 06:34:50;;;;;;;2.42;2.22;;;;;;;18.02;65.22;96677.09;5131784;27;20342;-74
2021/07/02 06:37:29;;;;;;;2.17;2.08;;;;;;;18.16;64.86;96676.59;5109457;27;20402;-74
2021/07/02 06:40:07;;;;;;;2.40;2.30;;;;;;;18.20;64.46;96688.28;5091430;28;20388;-74
2021/07/02 06:42:44;;;;;;;2.15;2.00;;;;;;;18.12;63.88;96686.13;5070518;28;20383;-74
2021/07/02 06:45:22;;;;;;;2.45;2.20;;;;;;;18.27;64.18;96694.16;5111158;27;20136;-74
2021/07/02 06:48:02;;;;;;;2.20;2.08;;;;;;;18.45;63.71;96688.34;5090984;27;20381;-75
2021/07/02 06:50:42;;;;;;;2.30;2.10;;;;;;;18.53;63.38;96678.28;5111326;27;20727;-74
2021/07/02 06:53:19;;;;;;;2.00;1.90;;;;;;;18.49;63.29;96672.69;5070509;28;20382;-75
2021/07/02 06:55:57;;;;;;;2.10;2.00;;;;;;;18.62;63.18;96676.69;5111187;27;20132;-74
2021/07/02 06:58:33;;;;;;;2.08;1.98;;;;;;;18.89;62.75;96684.47;5101362;27;20381;-74
2021/07/02 07:01:10;;;;;;;1.80;1.70;;;;;;;19.10;62.40;96671.97;5131994;27;20379;-74
2021/07/02 07:03:47;;;;;;;1.90;1.80;;;;;;;19.26;62.11;96667.47;5070574;28;20390;-74
2021/07/02 07:06:23;;;;;;;3.03;1.90;;;;;;;19.47;62.01;96670.88;5070563;28;20378;-76
2021/07/02 07:09:00;;;;;;;2.47;2.08;;;;;;;19.59;61.43;96675.91;5070993;28;20750;-74
2021/07/02 07:11:36;;;;;;;1.75;1.65;;;;;;;19.45;61.09;96673.00;5070993;28;20379;-74
2021/07/02 07:14:13;;;;;;;2.80;2.03;;;;;;;19.26;61.11;96670.91;5070990;28;20381;-73
2021/07/02 07:16:50;;;;;;;1.95;1.85;;;;;;;19.22;61.78;96677.81;5090841;28;20388;-74
2021/07/02 07:19:28;;;;;;;2.15;2.00;;;;;;;19.17;61.71;96677.03;5070833;28;20382;-73
2021/07/02 07:22:05;;;;;;;1.90;1.80;;;;;;;19.11;61.93;96686.06;5132168;27;20370;-74
2021/07/02 07:24:41;;;;;;;2.70;1.75;;;;;;;19.05;62.26;96682.63;5091170;28;20381;-73
2021/07/02 07:27:18;;;;;;;1.95;1.77;;;;;;;18.95;62.13;96688.72;5131902;27;20893;-74
2021/07/02 07:29:55;;;;;;;1.92;1.60;;;;;;;18.71;61.66;96675.13;5111236;27;20465;-74
2021/07/02 07:32:33;;;;;;;1.50;1.40;;;;;;;18.65;61.44;96679.63;5039013;27;2638460;-74
2021/07/02 07:35:17;;;;;;;1.48;1.38;;;;;;;18.83;60.96;96683.66;5070880;28;20379;-74
2021/07/02 07:37:56;;;;;;;1.20;1.20;;;;;;;19.14;60.27;96680.22;5082684;27;1344045;-74
2021/07/02 07:40:34;;;;;;;1.52;1.42;;;;;;;19.44;59.59;96671.41;5091144;28;20381;-74
2021/07/02 07:43:11;;;;;;;1.65;1.55;;;;;;;19.67;58.64;96664.69;5111301;27;20425;-73
2021/07/02 07:45:49;;;;;;;1.70;1.60;;;;;;;19.96;57.83;96653.47;5124097;27;20184;-74
2021/07/02 07:48:28;;;;;;;1.50;1.40;;;;;;;20.23;56.98;96655.72;5111084;27;20441;-73
2021/07/02 07:51:16;;;;;;;1.30;1.30;;;;;;;20.48;56.46;96639.59;5122295;27;19963;-74
2021/07/02 07:53:53;;;;;;;1.63;1.52;;;;;;;20.83;55.74;96639.63;5071005;28;20370;-74
2021/07/02 07:56:30;;;;;;;1.90;1.20;;;;;;;20.94;54.52;96630.50;5091614;27;20464;-74
2021/07/02 07:59:08;;;;;;;1.92;1.27;;;;;;;20.96;54.21;96628.34;5131800;27;20115;-74
2021/07/02 08:01:47;;;;;;;1.40;1.30;;;;;;;20.85;53.24;96622.31;5132118;27;20116;-74
2021/07/02 08:04:24;;;;;;;1.45;1.40;;;;;;;20.66;53.27;96624.88;5125976;27;20195;-73
2021/07/02 08:07:03;;;;;;;1.17;1.17;;;;;;;20.64;52.64;96626.19;5131518;27;20475;-74
2021/07/02 08:09:41;;;;;;;1.33;1.30;;;;;;;20.60;52.56;96631.31;5111074;27;20120;-74
2021/07/02 08:12:19;;;;;;;1.30;1.30;;;;;;;20.39;52.05;96632.44;5070989;28;20389;-73
2021/07/02 08:14:57;;;;;;;1.10;1.10;;;;;;;20.06;51.98;96632.13;5131732;27;20335;-74
2021/07/02 08:17:36;;;;;;;1.48;1.38;;;;;;;19.74;52.37;96630.66;5090916;28;20478;-74
2021/07/02 08:20:14;;;;;;;1.45;1.35;;;;;;;20.01;52.58;96629.47;5131698;27;20175;-74
2021/07/02 08:22:53;;;;;;;1.23;1.23;;;;;;;20.34;51.48;96630.63;5106455;27;20397;-74
2021/07/02 08:25:29;;;;;;;1.65;1.50;;;;;;;20.46;50.53;96614.31;5090927;28;20404;-74
2021/07/02 08:30:52;;;;;;;1.38;1.38;;;;;;;20.54;49.76;96610.28;5090932;27;20384;-74
2021/07/02 08:33:29;;;;;;;1.42;1.30;;;;;;;20.80;49.79;96619.66;5091134;27;20380;-74
2021/07/02 08:36:06;;;;;;;1.60;1.50;;;;;;;20.45;49.54;96608.19;5103225;27;20923;-74
2021/07/02 08:38:45;;;;;;;1.60;1.50;;;;;;;20.17;50.34;96622.22;5111499;27;20446;-74
2021/07/02 08:41:23;;;;;;;1.50;1.40;;;;;;;19.91;50.95;96629.50;5131585;27;20556;-74
2021/07/02 08:44:01;;;;;;;1.40;1.40;;;;;;;19.71;50.74;96641.84;5111433;27;20117;-74
2021/07/02 08:46:42;;;;;;;1.40;1.40;;;;;;;19.95;50.88;96631.38;5131897;27;20579;-74
2021/07/02 08:49:20;;;;;;;1.10;1.10;;;;;;;20.31;50.08;96625.88;5099594;28;20461;-74
2021/07/02 08:51:58;;;;;;;1.30;1.20;;;;;;;20.40;49.25;96623.41;5112169;27;20207;-73
2021/07/02 08:54:35;;;;;;;1.35;1.25;;;;;;;20.18;49.05;96616.63;5131545;27;20183;-73
2021/07/02 08:57:14;;;;;;;1.30;1.20;;;;;;;20.00;49.50;96625.22;5132042;27;20127;-73
2021/07/02 08:59:52;;;;;;;1.10;1.10;;;;;;;20.05;49.75;96630.50;5131357;27;20236;-75
2021/07/02 09:02:36;;;;;;;1.10;1.10;;;;;;;20.38;48.67;96620.22;5091198;28;20125;-74
2021/07/02 09:05:30;;;;;;;1.40;1.20;;;;;;;20.55;47.40;96617.97;5110997;27;20433;-74
2021/07/02 09:08:16;;;;;;;1.00;1.00;;;;;;;20.80;47.84;96645.53;5070883;28;20381;-74
2021/07/02 09:10:53;;;;;;;1.40;1.30;;;;;;;21.06;47.43;96652.25;5091180;27;20749;-73
2021/07/02 09:13:43;;;;;;;1.27;1.27;;;;;;;21.26;43.62;96651.28;5131687;27;20375;-74
2021/07/02 09:16:24;;;;;;;1.13;1.13;;;;;;;21.18;46.13;96688.41;5111170;27;20384;-74
2021/07/02 09:19:22;;;;;;;0.80;0.80;;;;;;;21.16;42.67;96669.25;5111132;27;20448;-74
2021/07/02 09:22:17;;;;;;;1.70;0.93;;;;;;;21.37;43.57;96681.31;5111214;27;20128;-74
2021/07/02 09:24:56;;;;;;;1.10;1.10;;;;;;;21.59;44.42;96688.09;5107723;27;20404;-74
2021/07/02 09:27:34;;;;;;;0.90;0.90;;;;;;;21.82;43.95;96689.97;5129895;27;20544;-74
2021/07/02 09:30:15;;;;;;;1.08;1.08;;;;;;;21.83;43.38;96693.44;5131593;27;20116;-75
2021/07/02 09:32:56;;;;;;;0.98;0.98;;;;;;;21.62;43.33;96692.84;5071046;28;20379;-74
2021/07/02 09:35:50;;;;;;;0.95;0.95;;;;;;;21.32;41.88;96694.72;5090748;27;20382;-74
2021/07/02 09:38:38;;;;;;;1.00;1.00;;;;;;;21.38;42.22;96680.25;5070617;28;20751;-74
2021/07/02 09:41:15;;;;;;;1.30;1.20;;;;;;;21.40;43.51;96699.44;5091314;27;20374;-74
2021/07/02 09:44:08;;;;;;;1.20;1.20;;;;;;;21.59;43.45;96696.88;5110127;27;20392;-74
2021/07/02 09:46:46;;;;;;;0.95;0.95;;;;;;;21.46;43.47;96692.19;5091018;27;20903;-74
2021/07/02 09:49:26;;;;;;;1.25;1.20;;;;;;;21.64;43.35;96691.47;5090125;28;20051;-74
2021/07/02 09:52:07;;;;;;;1.60;1.00;;;;;;;21.90;41.85;96677.84;5090727;28;20043;-74
2021/07/02 09:54:33;;;;;;;1.10;1.10;;;;;;;22.19;42.84;96685.78;5091048;28;20461;-74
2021/07/02 09:57:21;;;;;;;0.93;0.93;;;;;;;22.38;38.77;96675.13;5090647;28;20039;-74
2021/07/02 10:00:11;;;;;;;0.98;0.98;;;;;;;22.40;38.43;96682.88;5080673;28;20049;-74
2021/07/02 10:02:38;;;;;;;1.15;0.98;;;;;;;22.42;40.84;96691.41;5090962;28;20032;-74
2021/07/02 10:05:05;;;;;;;0.90;0.90;;;;;;;22.63;40.45;96689.25;5090403;28;20461;-74
2021/07/02 10:07:33;;;;;;;1.00;1.00;;;;;;;22.78;40.09;96688.22;5089707;28;20037;-74
2021/07/02 10:09:59;;;;;;;1.23;1.10;;;;;;;22.68;39.74;96698.00;5090250;28;20043;-74
2021/07/02 10:12:26;;;;;;;1.08;0.90;;;;;;;22.38;40.15;96698.41;5090489;28;20039;-74
2021/07/02 10:14:52;;;;;;;0.98;0.98;;;;;;;22.09;40.25;96699.28;5089990;28;20048;-74
2021/07/02 10:17:19;;;;;;;1.15;1.15;;;;;;;21.85;40.71;96700.06;5090242;28;20480;-74
2021/07/02 10:19:46;;;;;;;1.08;1.08;;;;;;;21.68;40.94;96705.84;5090239;28;20033;-74
2021/07/02 10:22:18;;;;;;;1.00;1.00;;;;;;;21.76;41.45;96701.00;5089492;28;20052;-73
2021/07/02 10:24:50;;;;;;;4.82;4.10;;;;;;;22.12;40.72;96696.03;5089961;28;20048;-74
2021/07/02 10:27:17;;;;;;;1.50;1.40;;;;;;;22.50;41.09;96696.09;5090493;28;20032;-73
2021/07/02 10:29:44;;;;;;;2.38;2.15;;;;;;;22.80;40.70;96688.72;5088820;28;20028;-73
2021/07/02 10:32:12;;;;;;;3.05;2.75;;;;;;;23.05;39.88;96685.69;5090299;28;20032;-73
2021/07/02 10:34:39;;;;;;;1.20;1.20;;;;;;;23.04;39.96;96688.66;5090108;28;20044;-74
2021/07/02 10:37:06;;;;;;;1.00;1.00;;;;;;;23.09;39.78;96683.22;5089198;28;20051;-74
2021/07/02 10:39:35;;;;;;;4.38;3.60;;;;;;;23.05;39.86;96698.25;5089566;28;20055;-74
2021/07/02 10:42:12;;;;;;;0.93;0.90;;;;;;;22.89;37.30;96676.31;5090169;28;20369;-74
2021/07/02 10:44:59;;;;;;;1.35;1.20;;;;;;;22.94;39.82;96688.78;5089822;28;20052;-74
2021/07/02 10:47:26;;;;;;;1.00;1.00;;;;;;;23.09;39.39;96683.22;5076236;28;20036;-74
2021/07/02 10:49:53;;;;;;;0.80;0.80;;;;;;;23.19;39.17;96688.41;5089983;28;20032;-74
2021/07/02 10:52:22;;;;;;;1.13;1.05;;;;;;;23.37;38.76;96684.09;5089353;28;20488;-74
2021/07/02 10:54:55;;;;;;;2.10;1.20;;;;;;;23.57;38.66;96685.59;5089564;28;20043;-74
2021/07/02 10:57:23;;;;;;;1.10;1.10;;;;;;;23.83;38.37;96682.47;5080370;28;20029;-73
2021/07/02 10:59:49;;;;;;;0.90;0.90;;;;;;;23.94;38.21;96675.03;5075601;28;20045;-74
2021/07/02 11:02:23;;;;;;;0.90;0.90;;;;;;;23.74;37.89;96687.72;5076631;28;20035;-74
2021/07/02 11:04:56;;;;;;;0.90;0.90;;;;;;;23.82;37.92;96680.91;5075801;28;20044;-74
2021/07/02 11:07:23;;;;;;;0.90;0.90;;;;;;;23.97;37.49;96691.31;5076068;28;20044;-74
2021/07/02 11:09:57;;;;;;;1.05;1.05;;;;;;;24.20;37.81;96692.19;5075894;28;20044;-74
2021/07/02 11:12:32;;;;;;;1.10;1.10;;;;;;;24.01;34.92;96675.44;5075607;28;20471;-74
2021/07/02 11:14:58;;;;;;;1.20;1.10;;;;;;;23.88;37.53;96688.53;5075676;28;20040;-74
2021/07/02 11:17:46;;;;;;;1.35;1.17;;;;;;;24.07;39.59;96696.47;5075537;28;20032;-76
2021/07/02 11:20:18;;;;;;;0.82;0.82;;;;;;;24.09;35.64;96674.75;5075159;28;20040;-74
2021/07/02 11:22:53;;;;;;;0.90;0.90;;;;;;;24.27;37.92;96675.69;5075390;28;20055;-74
2021/07/02 11:27:56;;;;;;;1.98;0.98;;;;;;;24.48;37.64;96676.88;5075062;28;20040;-74
2021/07/02 11:30:37;;;;;;;0.90;0.90;;;;;;;24.25;37.86;96678.69;5075508;28;20473;-74
2021/07/02 11:33:14;;;;;;;1.80;1.33;;;;;;;24.18;38.34;96686.34;5075395;28;20032;-74
2021/07/02 11:36:07;;;;;;;1.35;1.27;;;;;;;24.29;37.00;96674.28;5074629;28;20047;-74
2021/07/02 11:38:44;;;;;;;1.02;1.00;;;;;;;24.58;37.85;96672.41;5074818;28;20044;-74
2021/07/02 11:41:19;;;;;;;0.98;0.95;;;;;;;24.85;36.74;96669.59;5062797;28;20033;-74
2021/07/02 11:43:45;;;;;;;0.95;0.95;;;;;;;25.04;37.03;96668.63;5074490;28;20037;-74
2021/07/02 11:46:13;;;;;;;2.35;1.20;;;;;;;25.16;36.71;96682.28;5074265;28;20049;-74
2021/07/02 11:48:44;;;;;;;2.65;1.20;;;;;;;25.03;36.89;96675.09;5075090;28;20516;-74
2021/07/02 11:51:31;;;;;;;0.90;0.90;;;;;;;25.03;37.97;96678.59;5074914;28;20041;-74
2021/07/02 11:54:05;;;;;;;1.00;1.00;;;;;;;25.08;37.88;96680.34;5074504;28;20047;-74
2021/07/02 11:56:34;;;;;;;1.08;1.08;;;;;;;25.22;37.37;96681.09;5074170;28;20040;-76
2021/07/02 11:59:08;;;;;;;1.33;1.17;;;;;;;25.31;37.21;96673.88;5060174;28;20392;-74
2021/07/02 12:01:43;;;;;;;0.73;0.73;;;;;;;25.18;36.50;96682.78;5075032;28;20044;-74
2021/07/02 12:04:11;;;;;;;1.20;1.10;;;;;;;25.14;36.54;96673.75;5074635;28;20086;-74
2021/07/02 12:06:45;;;;;;;1.10;1.00;;;;;;;25.25;35.97;96669.75;5074511;28;20048;-74
2021/07/02 12:09:19;;;;;;;0.90;0.90;;;;;;;25.37;34.19;96663.03;5073937;28;20036;-74
2021/07/02 12:11:54;;;;;;;1.00;1.00;;;;;;;25.55;35.98;96672.72;5075051;28;20044;-74
2021/07/02 12:14:26;;;;;;;1.30;1.20;;;;;;;25.49;34.72;96672.09;5063904;28;20028;-73
2021/07/02 12:16:53;;;;;;;1.05;1.00;;;;;;;25.51;35.25;96675.25;5073646;28;20059;-74
2021/07/02 12:19:23;;;;;;;0.90;0.90;;;;;;;25.62;35.82;96683.84;5074642;28;20039;-74
2021/07/02 12:21:59;;;;;;;2.05;1.13;;;;;;;25.91;36.55;96677.97;5073893;28;20037;-74
2021/07/02 12:24:28;;;;;;;1.02;1.02;;;;;;;26.18;35.90;96678.81;5074330;28;20448;-74
2021/07/02 12:27:06;;;;;;;0.80;0.80;;;;;;;26.30;35.91;96675.53;5074190;28;20028;-74